Shinkai Maru — JJ4012 — position and weather

sailwx.info

Track history (hours):
 
Tides and Currents Weather Stations Pressure Air Temp Water Temp Dewpoint Dewpoint Depression Visibility Wind Speed Wind Dir Waves Ship Positions

Shinkai Maru

Last reported at 2015-Jul-04 04:31 UTC. Time now 2015-Jul-05 06:05 UTC.
Position N 34°40' E 134°48'.

Length 76 m; draft 4.2 m.

Type: Cargo ship. MMSI: 431301346.

Date/timePositionNaut miles runAvg speedWind from/ knotsBaromVisibWave heightAir tempDewpointWater temp
2015-Jul-04 04:31N 34°40' E 134°48'10 9.9
2015-Jul-04 03:33N 34°37' E 134°59'9 9.2
2015-Jul-04 02:33N 34°29' E 135°04'1512.6
2015-Jul-04 01:21N 34°15' E 134°59'1012.8
2015-Jul-04 00:32N 34°04' E 135°01'232 8.8
2015-Jul-02 22:18N 35°03' E 139°34'911.4
2015-Jul-02 21:32N 35°07' E 139°43'1010.6
2015-Jul-02 20:33N 35°18' E 139°44'7 7.5
2015-Jul-02 19:33N 35°25' E 139°48'4 3.2
2015-Jul-02 18:18N 35°22' E 139°51'0 0.0
2015-Jul-02 17:27N 35°22' E 139°51'0 0.0
2015-Jul-02 16:33N 35°22' E 139°51'0 0.0
2015-Jul-02 15:30N 35°22' E 139°51'0 0.0
2015-Jul-02 14:33N 35°22' E 139°51'0 0.0
2015-Jul-02 13:33N 35°22' E 139°51'2 1.5
2015-Jul-02 12:33N 35°22' E 139°49'0 0.4
2015-Jul-02 11:33N 35°22' E 139°49'1111.2
2015-Jul-02 10:33N 35°33' E 139°54'8 8.1
2015-Jul-02 09:32N 35°41' E 139°58'0 0.0
2015-Jul-02 08:32N 35°41' E 139°58'0 0.0
2015-Jul-02 07:32N 35°41' E 139°58'0 0.0
2015-Jul-02 06:29N 35°41' E 139°58'0 0.0
2015-Jul-02 05:32N 35°41' E 139°58'0 0.0
2015-Jul-02 04:32N 35°41' E 139°58'0 0.0
2015-Jul-02 03:32N 35°41' E 139°58'0 0.0
2015-Jul-02 02:32N 35°41' E 139°58'0 0.0
2015-Jul-02 01:32N 35°41' E 139°58'0 0.0
2015-Jul-02 00:32N 35°41' E 139°58'0 0.0
2015-Jul-01 23:31N 35°41' E 139°58'0 0.0
2015-Jul-01 22:22N 35°41' E 139°58'0 0.0
2015-Jul-01 21:31N 35°41' E 139°58'0 0.0
2015-Jul-01 20:31N 35°41' E 139°58'0 0.0
2015-Jul-01 19:25N 35°41' E 139°58'0 0.0
2015-Jul-01 18:28N 35°41' E 139°58'0 0.0
2015-Jul-01 17:31N 35°41' E 139°58'0 0.0
2015-Jul-01 16:13N 35°41' E 139°58'0 0.0
2015-Jul-01 15:31N 35°41' E 139°58'0 0.0
2015-Jul-01 14:28N 35°41' E 139°58'0 0.0
2015-Jul-01 13:22N 35°41' E 139°58'0 0.0
2015-Jul-01 12:22N 35°41' E 139°58'0 0.0
2015-Jul-01 10:31N 35°41' E 139°58'0 0.0
2015-Jul-01 09:28N 35°41' E 139°58'0 0.0
2015-Jul-01 08:31N 35°41' E 139°58'0 0.0
2015-Jul-01 07:31N 35°41' E 139°58'0 0.0
2015-Jul-01 06:16N 35°41' E 139°58'0 0.0
2015-Jul-01 05:31N 35°41' E 139°58'0 0.0
2015-Jul-01 03:28N 35°41' E 139°58'0 0.0
2015-Jul-01 02:28N 35°41' E 139°58'0 0.0
2015-Jul-01 01:25N 35°41' E 139°58'0 0.0
2015-Jul-01 00:28N 35°41' E 139°58'0 0.0
2015-Jun-30 23:19N 35°41' E 139°58'0 0.0
2015-Jun-30 22:31N 35°41' E 139°58'0 0.0
2015-Jun-30 21:31N 35°41' E 139°58'0 0.0
2015-Jun-30 20:31N 35°41' E 139°58'0 0.0
2015-Jun-30 19:31N 35°41' E 139°58'0 0.0
2015-Jun-30 18:31N 35°41' E 139°58'0 0.0
2015-Jun-30 17:31N 35°41' E 139°58'0 0.0
2015-Jun-30 16:22N 35°41' E 139°58'0 0.0
2015-Jun-30 15:31N 35°41' E 139°58'0 0.0
2015-Jun-30 14:16N 35°41' E 139°58'0 0.0
2015-Jun-30 13:25N 35°41' E 139°58'0 0.0
2015-Jun-30 12:28N 35°41' E 139°58'0 0.0
2015-Jun-30 11:19N 35°41' E 139°58'0 0.0
2015-Jun-30 09:31N 35°41' E 139°58'0 0.0
2015-Jun-30 08:22N 35°41' E 139°58'0 0.0
2015-Jun-30 07:31N 35°41' E 139°58'0 0.0
2015-Jun-30 06:31N 35°41' E 139°58'0 0.0
2015-Jun-30 05:31N 35°41' E 139°58'2 2.5
2015-Jun-30 04:33N 35°38' E 139°58'1211.9
2015-Jun-30 03:33N 35°28' E 139°51'1211.8
2015-Jun-30 02:33N 35°18' E 139°45'1111.1
2015-Jun-30 01:33N 35°07' E 139°44'233 9.0
2015-Jun-28 23:31N 34°27' E 135°04'1010.9
2015-Jun-28 22:33N 34°37' E 135°01'1010.0
2015-Jun-28 21:32N 34°40' E 134°49'1 0.0
2015-Jun-28 02:17N 34°41' E 134°50'7 9.5
2015-Jun-28 01:33N 34°37' E 134°57'8 7.6
2015-Jun-28 00:32N 34°32' E 135°04'2211.3
2015-Jun-27 22:33N 34°10' E 134°59'4 0.1
2015-Jun-26 01:05N 34°14' E 134°58'913.2
2015-Jun-26 00:26N 34°23' E 134°60'1112.7
2015-Jun-25 23:33N 34°34' E 135°03'1311.1
2015-Jun-25 22:21N 34°40' E 134°49'  
Track history (hours):
 
Tides and Currents Weather Stations Pressure Air Temp Water Temp Dewpoint Dewpoint Depression Visibility Wind Speed Wind Dir Waves Ship Positions

Shinkai Maru

Last reported at 2015-Jul-04 04:31 UTC. Time now 2015-Jul-05 06:05 UTC.
Position N 34°40' E 134°48'.

Length 76 m; draft 4.2 m.

Type: Cargo ship. MMSI: 431301346.

Date/timePositionNaut miles runAvg speedWind from/ knotsBaromVisibWave heightAir tempDewpointWater temp
2015-Jul-04 04:31N 34°40' E 134°48'10 9.9
2015-Jul-04 03:33N 34°37' E 134°59'9 9.2
2015-Jul-04 02:33N 34°29' E 135°04'1512.6
2015-Jul-04 01:21N 34°15' E 134°59'1012.8
2015-Jul-04 00:32N 34°04' E 135°01'232 8.8
2015-Jul-02 22:18N 35°03' E 139°34'911.4
2015-Jul-02 21:32N 35°07' E 139°43'1010.6
2015-Jul-02 20:33N 35°18' E 139°44'7 7.5
2015-Jul-02 19:33N 35°25' E 139°48'4 3.2
2015-Jul-02 18:18N 35°22' E 139°51'0 0.0
2015-Jul-02 17:27N 35°22' E 139°51'0 0.0
2015-Jul-02 16:33N 35°22' E 139°51'0 0.0
2015-Jul-02 15:30N 35°22' E 139°51'0 0.0
2015-Jul-02 14:33N 35°22' E 139°51'0 0.0
2015-Jul-02 13:33N 35°22' E 139°51'2 1.5
2015-Jul-02 12:33N 35°22' E 139°49'0 0.4
2015-Jul-02 11:33N 35°22' E 139°49'1111.2
2015-Jul-02 10:33N 35°33' E 139°54'8 8.1
2015-Jul-02 09:32N 35°41' E 139°58'0 0.0
2015-Jul-02 08:32N 35°41' E 139°58'0 0.0
2015-Jul-02 07:32N 35°41' E 139°58'0 0.0
2015-Jul-02 06:29N 35°41' E 139°58'0 0.0
2015-Jul-02 05:32N 35°41' E 139°58'0 0.0
2015-Jul-02 04:32N 35°41' E 139°58'0 0.0
2015-Jul-02 03:32N 35°41' E 139°58'0 0.0
2015-Jul-02 02:32N 35°41' E 139°58'0 0.0
2015-Jul-02 01:32N 35°41' E 139°58'0 0.0
2015-Jul-02 00:32N 35°41' E 139°58'0 0.0
2015-Jul-01 23:31N 35°41' E 139°58'0 0.0
2015-Jul-01 22:22N 35°41' E 139°58'0 0.0
2015-Jul-01 21:31N 35°41' E 139°58'0 0.0
2015-Jul-01 20:31N 35°41' E 139°58'0 0.0
2015-Jul-01 19:25N 35°41' E 139°58'0 0.0
2015-Jul-01 18:28N 35°41' E 139°58'0 0.0
2015-Jul-01 17:31N 35°41' E 139°58'0 0.0
2015-Jul-01 16:13N 35°41' E 139°58'0 0.0
2015-Jul-01 15:31N 35°41' E 139°58'0 0.0
2015-Jul-01 14:28N 35°41' E 139°58'0 0.0
2015-Jul-01 13:22N 35°41' E 139°58'0 0.0
2015-Jul-01 12:22N 35°41' E 139°58'0 0.0
2015-Jul-01 10:31N 35°41' E 139°58'0 0.0
2015-Jul-01 09:28N 35°41' E 139°58'0 0.0
2015-Jul-01 08:31N 35°41' E 139°58'0 0.0
2015-Jul-01 07:31N 35°41' E 139°58'0 0.0
2015-Jul-01 06:16N 35°41' E 139°58'0 0.0
2015-Jul-01 05:31N 35°41' E 139°58'0 0.0
2015-Jul-01 03:28N 35°41' E 139°58'0 0.0
2015-Jul-01 02:28N 35°41' E 139°58'0 0.0
2015-Jul-01 01:25N 35°41' E 139°58'0 0.0
2015-Jul-01 00:28N 35°41' E 139°58'0 0.0
2015-Jun-30 23:19N 35°41' E 139°58'0 0.0
2015-Jun-30 22:31N 35°41' E 139°58'0 0.0
2015-Jun-30 21:31N 35°41' E 139°58'0 0.0
2015-Jun-30 20:31N 35°41' E 139°58'0 0.0
2015-Jun-30 19:31N 35°41' E 139°58'0 0.0
2015-Jun-30 18:31N 35°41' E 139°58'0 0.0
2015-Jun-30 17:31N 35°41' E 139°58'0 0.0
2015-Jun-30 16:22N 35°41' E 139°58'0 0.0
2015-Jun-30 15:31N 35°41' E 139°58'0 0.0
2015-Jun-30 14:16N 35°41' E 139°58'0 0.0
2015-Jun-30 13:25N 35°41' E 139°58'0 0.0
2015-Jun-30 12:28N 35°41' E 139°58'0 0.0
2015-Jun-30 11:19N 35°41' E 139°58'0 0.0
2015-Jun-30 09:31N 35°41' E 139°58'0 0.0
2015-Jun-30 08:22N 35°41' E 139°58'0 0.0
2015-Jun-30 07:31N 35°41' E 139°58'0 0.0
2015-Jun-30 06:31N 35°41' E 139°58'0 0.0
2015-Jun-30 05:31N 35°41' E 139°58'2 2.5
2015-Jun-30 04:33N 35°38' E 139°58'1211.9
2015-Jun-30 03:33N 35°28' E 139°51'1211.8
2015-Jun-30 02:33N 35°18' E 139°45'1111.1
2015-Jun-30 01:33N 35°07' E 139°44'233 9.0
2015-Jun-28 23:31N 34°27' E 135°04'1010.9
2015-Jun-28 22:33N 34°37' E 135°01'1010.0
2015-Jun-28 21:32N 34°40' E 134°49'1 0.0
2015-Jun-28 02:17N 34°41' E 134°50'7 9.5
2015-Jun-28 01:33N 34°37' E 134°57'8 7.6
2015-Jun-28 00:32N 34°32' E 135°04'2211.3
2015-Jun-27 22:33N 34°10' E 134°59'4 0.1
2015-Jun-26 01:05N 34°14' E 134°58'913.2
2015-Jun-26 00:26N 34°23' E 134°60'1112.7
2015-Jun-25 23:33N 34°34' E 135°03'1311.1
2015-Jun-25 22:21N 34°40' E 134°49'  

Dump ship's entire track history